createdAt,value
2023-04-16T00:02:16.084Z,11.80
2023-04-16T00:04:43.847Z,11.90
2023-04-16T00:07:11.124Z,11.80
2023-04-16T00:09:38.374Z,11.80
2023-04-16T00:12:06.857Z,11.70
2023-04-16T00:14:34.213Z,11.70
2023-04-16T00:17:01.611Z,11.70
2023-04-16T00:19:29.010Z,11.60
2023-04-16T00:21:56.622Z,11.60
2023-04-16T00:24:24.014Z,11.60
2023-04-16T00:26:51.484Z,11.70
2023-04-16T00:29:19.013Z,11.60
2023-04-16T00:31:46.330Z,11.70
2023-04-16T00:34:13.774Z,11.60
2023-04-16T00:36:41.343Z,11.70
2023-04-16T00:39:08.998Z,11.70
2023-04-16T00:41:37.946Z,11.80
2023-04-16T00:44:05.235Z,11.80
2023-04-16T00:46:33.115Z,11.80
2023-04-16T00:49:02.126Z,11.70
2023-04-16T00:51:29.985Z,11.70
2023-04-16T00:53:58.251Z,11.80
2023-04-16T00:56:25.982Z,11.80
2023-04-16T00:58:55.328Z,11.80
2023-04-16T01:01:23.176Z,11.80
2023-04-16T01:03:51.164Z,11.90
2023-04-16T01:06:19.299Z,11.80
2023-04-16T01:08:48.287Z,11.80
2023-04-16T01:11:16.577Z,11.80
2023-04-16T01:13:43.965Z,11.80
2023-04-16T01:16:12.960Z,11.90
2023-04-16T01:18:40.734Z,12.00
2023-04-16T01:21:08.219Z,12.00
2023-04-16T01:23:35.737Z,11.90
2023-04-16T01:26:03.065Z,11.90
2023-04-16T01:28:30.544Z,11.80
2023-04-16T01:30:58.006Z,11.80
2023-04-16T01:33:25.323Z,11.70
2023-04-16T01:35:52.780Z,11.80
2023-04-16T01:38:20.274Z,11.70
2023-04-16T01:40:47.585Z,11.80
2023-04-16T01:43:14.877Z,11.80
2023-04-16T01:45:42.914Z,11.70
2023-04-16T01:48:10.215Z,11.80
2023-04-16T01:50:37.772Z,11.80
2023-04-16T01:53:05.354Z,11.80
2023-04-16T01:55:35.753Z,11.80
2023-04-16T01:58:03.073Z,12.00
2023-04-16T02:00:30.623Z,12.00
2023-04-16T02:02:58.244Z,11.90
2023-04-16T02:05:26.086Z,11.90
2023-04-16T02:07:53.436Z,11.90
2023-04-16T02:10:20.872Z,11.80
2023-04-16T02:12:48.167Z,11.80
2023-04-16T02:15:16.534Z,12.00
2023-04-16T02:17:44.037Z,11.90
2023-04-16T02:20:11.926Z,11.70
2023-04-16T02:22:39.132Z,11.70
2023-04-16T02:25:06.638Z,11.60
2023-04-16T02:27:34.266Z,11.70
2023-04-16T02:30:01.548Z,11.80
2023-04-16T02:32:28.985Z,11.70
2023-04-16T02:34:57.355Z,11.60
2023-04-16T02:37:26.117Z,11.70
2023-04-16T02:39:53.498Z,11.60
2023-04-16T02:42:20.777Z,11.50
2023-04-16T02:44:48.059Z,11.60
2023-04-16T02:47:15.313Z,11.40
2023-04-16T02:49:42.642Z,11.40
2023-04-16T02:52:09.788Z,11.60
2023-04-16T02:54:37.087Z,11.70
2023-04-16T02:57:04.265Z,11.60
2023-04-16T02:59:31.748Z,11.50
2023-04-16T03:01:59.140Z,11.60
2023-04-16T03:04:26.475Z,11.50
2023-04-16T03:06:53.818Z,11.50
2023-04-16T03:09:21.260Z,11.50
2023-04-16T03:11:48.585Z,11.40
2023-04-16T03:14:16.017Z,11.40
2023-04-16T03:16:43.368Z,11.50
2023-04-16T03:19:10.674Z,11.50
2023-04-16T03:21:38.348Z,11.50
2023-04-16T03:24:05.919Z,11.60
2023-04-16T03:26:33.156Z,11.60
2023-04-16T03:29:02.398Z,11.50
2023-04-16T03:31:29.853Z,11.60
2023-04-16T03:33:57.326Z,11.40
2023-04-16T03:36:25.526Z,11.50
2023-04-16T03:38:53.175Z,11.50
2023-04-16T03:41:20.566Z,11.50
2023-04-16T03:43:47.850Z,11.50
2023-04-16T03:46:15.238Z,11.40
2023-04-16T03:48:42.563Z,11.30
2023-04-16T03:51:09.919Z,11.40
2023-04-16T03:53:37.136Z,11.30
2023-04-16T03:56:16.064Z,11.30
2023-04-16T03:58:43.573Z,11.40
2023-04-16T04:01:11.247Z,11.20
2023-04-16T04:03:38.719Z,11.30
2023-04-16T04:06:09.554Z,11.40
2023-04-16T04:08:36.863Z,11.50
2023-04-16T04:11:04.351Z,11.40
2023-04-16T04:13:31.672Z,11.30
2023-04-16T04:15:59.110Z,11.30
2023-04-16T04:18:26.585Z,11.20
2023-04-16T04:20:54.142Z,11.40
2023-04-16T04:23:21.621Z,11.50
2023-04-16T04:25:49.231Z,11.40
2023-04-16T04:28:16.744Z,11.30
2023-04-16T04:30:44.151Z,11.20
2023-04-16T04:33:11.609Z,11.30
2023-04-16T04:35:39.056Z,11.30
2023-04-16T04:38:06.754Z,11.10
2023-04-16T04:40:33.994Z,11.00
2023-04-16T04:43:01.589Z,11.20
2023-04-16T04:45:31.687Z,11.10
2023-04-16T04:47:59.355Z,11.20
2023-04-16T04:50:26.711Z,11.30
2023-04-16T04:52:54.083Z,11.30
2023-04-16T04:55:21.395Z,11.30
2023-04-16T04:57:49.831Z,11.40
2023-04-16T05:00:17.065Z,11.30
2023-04-16T05:02:44.478Z,11.10
2023-04-16T05:05:11.854Z,11.20
2023-04-16T05:07:39.242Z,11.10
2023-04-16T05:10:07.281Z,11.20
2023-04-16T05:12:34.572Z,11.30
2023-04-16T05:15:01.913Z,11.10
2023-04-16T05:17:29.675Z,11.20
2023-04-16T05:19:57.008Z,11.20
2023-04-16T05:22:24.289Z,11.30
2023-04-16T05:24:51.603Z,11.40
2023-04-16T05:27:18.876Z,11.40
2023-04-16T05:29:46.038Z,11.50
2023-04-16T05:32:13.345Z,11.50
2023-04-16T05:34:40.814Z,11.40
2023-04-16T05:37:08.101Z,11.40
2023-04-16T05:39:35.523Z,11.40
2023-04-16T05:42:02.869Z,11.40
2023-04-16T05:44:30.075Z,11.20
2023-04-16T05:46:57.307Z,11.20
2023-04-16T05:49:24.659Z,11.20
2023-04-16T05:51:52.247Z,11.30
2023-04-16T05:54:19.515Z,11.30
2023-04-16T05:56:46.742Z,11.30
2023-04-16T05:59:14.101Z,11.20
2023-04-16T06:01:41.525Z,11.30
2023-04-16T06:04:08.861Z,11.20
2023-04-16T06:06:38.033Z,11.20
2023-04-16T06:09:05.363Z,11.30
2023-04-16T06:11:34.030Z,11.40
2023-04-16T06:14:03.127Z,11.40
2023-04-16T06:16:30.358Z,11.30
2023-04-16T06:18:57.701Z,11.30
2023-04-16T06:21:24.941Z,11.40
2023-04-16T06:23:52.881Z,11.40
2023-04-16T06:26:20.069Z,11.60
2023-04-16T06:28:47.293Z,11.70
2023-04-16T06:31:14.729Z,11.80
2023-04-16T06:33:41.980Z,11.90
2023-04-16T06:36:09.249Z,11.60
2023-04-16T06:38:37.505Z,11.70
2023-04-16T06:41:04.986Z,11.50
2023-04-16T06:43:33.748Z,11.70
2023-04-16T06:46:00.984Z,11.80
2023-04-16T06:48:28.339Z,11.70
2023-04-16T06:50:56.461Z,11.70
2023-04-16T06:53:24.080Z,11.50
2023-04-16T06:55:51.954Z,11.50
2023-04-16T06:58:19.138Z,11.20
2023-04-16T07:00:46.482Z,11.20
2023-04-16T07:03:14.273Z,11.50
2023-04-16T07:05:41.721Z,11.50
2023-04-16T07:08:08.869Z,11.60
2023-04-16T07:10:36.113Z,11.90
2023-04-16T07:13:03.389Z,12.10
2023-04-16T07:15:30.709Z,12.00
2023-04-16T07:17:58.106Z,11.90
2023-04-16T07:20:25.429Z,12.00
2023-04-16T07:22:52.706Z,12.20
2023-04-16T07:25:19.938Z,12.10
2023-04-16T07:27:47.384Z,12.30
2023-04-16T07:30:14.664Z,12.30
2023-04-16T07:32:42.045Z,11.90
2023-04-16T07:35:09.651Z,11.60
2023-04-16T07:37:36.886Z,11.80
2023-04-16T07:40:04.696Z,11.90
2023-04-16T07:42:31.968Z,11.60
2023-04-16T07:44:59.400Z,11.60
2023-04-16T07:47:27.433Z,11.70
2023-04-16T07:49:54.834Z,12.00
2023-04-16T07:52:22.168Z,12.60
2023-04-16T07:54:49.342Z,13.10
2023-04-16T07:57:17.363Z,13.40
2023-04-16T07:59:44.529Z,13.30
2023-04-16T08:02:16.397Z,13.50
2023-04-16T08:04:44.173Z,13.60
2023-04-16T08:07:11.651Z,13.90
2023-04-16T08:09:56.729Z,13.40
2023-04-16T08:12:23.945Z,13.20
2023-04-16T08:14:51.426Z,13.00
2023-04-16T08:17:18.746Z,12.70
2023-04-16T08:19:46.230Z,12.70
2023-04-16T08:22:13.973Z,12.80
2023-04-16T08:24:41.343Z,13.20
2023-04-16T08:27:18.409Z,13.50
2023-04-16T08:29:46.947Z,13.70
2023-04-16T08:32:14.191Z,13.80
2023-04-16T08:34:42.395Z,13.70
2023-04-16T08:37:10.617Z,13.30
2023-04-16T08:39:38.049Z,13.20
2023-04-16T08:42:06.413Z,12.60
2023-04-16T08:44:37.723Z,12.30
2023-04-16T08:47:08.470Z,12.40
2023-04-16T08:49:44.119Z,12.50
2023-04-16T08:52:16.833Z,12.60
2023-04-16T08:54:56.738Z,12.60
2023-04-16T08:57:30.149Z,12.40
2023-04-16T08:59:58.376Z,12.50
2023-04-16T09:02:27.270Z,12.30
2023-04-16T09:04:56.884Z,11.60
2023-04-16T09:07:25.246Z,11.90
2023-04-16T09:09:54.022Z,12.30
2023-04-16T09:12:24.248Z,12.20
2023-04-16T09:14:51.668Z,12.30
2023-04-16T09:17:19.673Z,12.50
2023-04-16T09:19:46.994Z,12.40
2023-04-16T09:22:14.378Z,12.40
2023-04-16T09:24:42.176Z,12.60
2023-04-16T09:27:09.567Z,12.60
2023-04-16T09:29:39.236Z,12.70
2023-04-16T09:32:08.737Z,13.00
2023-04-16T09:34:54.969Z,13.00
2023-04-16T09:37:22.268Z,13.30
2023-04-16T09:40:01.843Z,13.40
2023-04-16T09:42:31.960Z,13.20
2023-04-16T09:45:01.982Z,13.30
2023-04-16T09:47:45.387Z,13.10
2023-04-16T09:50:18.922Z,13.00
2023-04-16T09:52:50.923Z,13.00
2023-04-16T09:55:23.664Z,12.80
2023-04-16T09:57:59.154Z,12.60
2023-04-16T10:00:26.758Z,12.40
2023-04-16T10:03:07.505Z,12.50
2023-04-16T10:05:37.463Z,12.50
2023-04-16T10:08:12.481Z,12.80
2023-04-16T10:10:40.337Z,12.90
2023-04-16T10:13:07.986Z,13.20
2023-04-16T10:15:35.293Z,13.00
2023-04-16T10:18:03.708Z,12.80
2023-04-16T10:20:31.451Z,13.40
2023-04-16T10:22:59.184Z,13.60
2023-04-16T10:25:27.828Z,13.60
2023-04-16T10:27:55.711Z,13.20
2023-04-16T10:30:23.452Z,13.40
2023-04-16T10:32:52.139Z,13.50
2023-04-16T10:35:22.570Z,13.40
2023-04-16T10:37:51.663Z,13.40
2023-04-16T10:40:27.575Z,13.60
2023-04-16T10:42:59.724Z,13.40
2023-04-16T10:45:32.091Z,13.60
2023-04-16T10:47:59.569Z,13.40
2023-04-16T10:50:35.191Z,13.60
2023-04-16T10:53:27.118Z,13.60
2023-04-16T10:56:03.331Z,13.20
2023-04-16T10:58:32.020Z,13.20
2023-04-16T11:01:17.039Z,13.30
2023-04-16T11:03:47.344Z,13.00
2023-04-16T11:06:24.919Z,12.90
2023-04-16T11:08:54.987Z,12.80
2023-04-16T11:11:22.985Z,13.20
2023-04-16T11:13:56.688Z,13.50
2023-04-16T11:16:26.217Z,13.70
2023-04-16T11:19:08.232Z,14.00
2023-04-16T11:21:36.780Z,14.50
2023-04-16T11:24:04.232Z,14.40
2023-04-16T11:26:31.518Z,14.20
2023-04-16T11:29:00.453Z,14.30
2023-04-16T11:31:27.742Z,13.70
2023-04-16T11:33:56.710Z,13.40
2023-04-16T11:38:28.837Z,13.50
2023-04-16T11:39:11.728Z,13.50
2023-04-16T11:41:46.758Z,13.60
2023-04-16T11:44:22.297Z,13.60
2023-04-16T11:46:51.099Z,14.00
2023-04-16T11:49:27.220Z,14.20
2023-04-16T11:51:55.477Z,14.30
2023-04-16T11:54:24.687Z,14.30
2023-04-16T11:56:53.807Z,14.20
2023-04-16T11:59:23.268Z,14.10
2023-04-16T12:01:58.061Z,13.90
2023-04-16T12:04:27.204Z,13.80
2023-04-16T12:07:14.435Z,13.90
2023-04-16T12:09:43.527Z,14.10
2023-04-16T12:12:32.043Z,14.30
2023-04-16T12:15:04.006Z,14.20
2023-04-16T12:17:36.078Z,14.20
2023-04-16T12:20:15.141Z,14.20
2023-04-16T12:22:47.717Z,14.20
2023-04-16T12:25:17.229Z,14.10
2023-04-16T12:27:56.114Z,14.00
2023-04-16T12:30:24.546Z,14.10
2023-04-16T12:32:53.910Z,14.10
2023-04-16T12:35:32.224Z,14.40
2023-04-16T12:38:00.476Z,14.30
2023-04-16T12:40:27.784Z,14.40
2023-04-16T12:42:55.508Z,14.40
2023-04-16T12:45:23.039Z,14.60
2023-04-16T12:47:51.432Z,14.50
2023-04-16T12:50:18.737Z,14.30
2023-04-16T12:52:46.218Z,14.30
2023-04-16T12:55:14.356Z,14.30
2023-04-16T12:57:41.654Z,14.10
2023-04-16T13:00:10.921Z,14.20
2023-04-16T13:02:38.350Z,14.30
2023-04-16T13:05:06.016Z,14.60
2023-04-16T13:07:34.125Z,14.70
2023-04-16T13:10:01.583Z,14.80
2023-04-16T13:12:28.763Z,15.10
2023-04-16T13:14:56.265Z,14.80
2023-04-16T13:17:23.592Z,14.70
2023-04-16T13:19:51.002Z,14.80
2023-04-16T13:22:18.291Z,14.60
2023-04-16T13:24:46.321Z,14.10
2023-04-16T13:27:16.206Z,13.20
2023-04-16T13:29:43.509Z,12.60
2023-04-16T13:32:10.861Z,12.80
2023-04-16T13:34:38.026Z,13.00
2023-04-16T13:37:05.173Z,13.30
2023-04-16T13:39:32.420Z,13.40
2023-04-16T13:42:00.317Z,13.60
2023-04-16T13:44:27.588Z,13.70
2023-04-16T13:46:55.008Z,13.70
2023-04-16T13:49:22.973Z,13.50
2023-04-16T13:51:51.232Z,13.40
2023-04-16T13:54:18.568Z,13.30
2023-04-16T13:56:46.032Z,13.20
2023-04-16T13:59:15.772Z,13.30
2023-04-16T14:01:43.099Z,13.30
2023-04-16T14:04:10.342Z,13.50
2023-04-16T14:06:37.729Z,13.70
2023-04-16T14:09:04.960Z,13.90
2023-04-16T14:11:32.162Z,13.90
2023-04-16T14:13:59.638Z,14.00
2023-04-16T14:16:27.608Z,14.30
2023-04-16T14:18:54.805Z,14.40
2023-04-16T14:21:22.061Z,14.50
2023-04-16T14:23:49.733Z,14.30
2023-04-16T14:26:17.116Z,14.30
2023-04-16T14:28:44.749Z,14.30
2023-04-16T14:31:11.936Z,14.10
2023-04-16T14:33:39.218Z,13.90
2023-04-16T14:36:06.775Z,14.00
2023-04-16T14:38:34.069Z,14.00
2023-04-16T14:41:01.453Z,13.60
2023-04-16T14:43:28.886Z,13.30
2023-04-16T14:45:57.273Z,13.00
2023-04-16T14:48:24.635Z,12.80
2023-04-16T14:50:52.595Z,12.60
2023-04-16T14:53:20.010Z,12.70
2023-04-16T14:55:47.760Z,12.70
2023-04-16T14:58:14.935Z,12.70
2023-04-16T15:00:42.253Z,12.90
2023-04-16T15:03:09.664Z,12.90
2023-04-16T15:05:36.983Z,13.10
2023-04-16T15:08:05.582Z,13.10
2023-04-16T15:10:33.040Z,13.20
2023-04-16T15:13:00.697Z,13.30
2023-04-16T15:15:27.879Z,13.40
2023-04-16T15:17:57.108Z,13.70
2023-04-16T15:20:24.570Z,13.80
2023-04-16T15:22:53.625Z,13.40
2023-04-16T15:25:21.074Z,13.20
2023-04-16T15:27:48.212Z,13.00
2023-04-16T15:30:15.928Z,13.20
2023-04-16T15:32:46.830Z,13.30
2023-04-16T15:35:14.581Z,13.20
2023-04-16T15:37:41.737Z,13.20
2023-04-16T15:40:09.290Z,13.10
2023-04-16T15:42:37.806Z,12.70
2023-04-16T15:45:05.448Z,12.70
2023-04-16T15:47:33.208Z,12.50
2023-04-16T15:50:01.089Z,12.20
2023-04-16T15:52:28.297Z,12.00
2023-04-16T15:54:56.035Z,12.00
2023-04-16T15:57:23.322Z,11.80
2023-04-16T16:00:05.828Z,11.80
2023-04-16T16:02:34.255Z,11.80
2023-04-16T16:05:02.324Z,12.00
2023-04-16T16:07:29.683Z,12.10
2023-04-16T16:09:58.671Z,12.00
2023-04-16T16:12:25.995Z,12.00
2023-04-16T16:14:53.372Z,11.90
2023-04-16T16:17:20.873Z,12.00
2023-04-16T16:19:48.114Z,11.90
2023-04-16T16:22:16.208Z,11.70
2023-04-16T16:24:43.420Z,11.90
2023-04-16T16:27:10.644Z,11.80
2023-04-16T16:29:37.776Z,11.70
2023-04-16T16:32:05.278Z,11.80
2023-04-16T16:34:32.479Z,11.70
2023-04-16T16:36:59.694Z,11.70
2023-04-16T16:39:27.405Z,11.80
2023-04-16T16:41:54.785Z,12.00
2023-04-16T16:44:22.349Z,12.00
2023-04-16T16:46:50.530Z,11.80
2023-04-16T16:49:18.216Z,11.80
2023-04-16T16:51:46.979Z,11.90
2023-04-16T16:54:14.762Z,11.90
2023-04-16T16:56:42.107Z,11.80
2023-04-16T16:59:09.675Z,11.70
2023-04-16T17:01:37.568Z,11.60
2023-04-16T17:04:05.308Z,11.60
2023-04-16T17:06:33.529Z,11.80
2023-04-16T17:09:01.091Z,11.80
2023-04-16T17:11:29.392Z,11.70
2023-04-16T17:13:56.681Z,11.80
2023-04-16T17:16:24.205Z,11.90
2023-04-16T17:18:51.813Z,12.00
2023-04-16T17:21:19.058Z,12.10
2023-04-16T17:23:46.267Z,12.00
2023-04-16T17:26:13.474Z,11.90
2023-04-16T17:28:40.969Z,11.90
2023-04-16T17:31:08.798Z,11.90
2023-04-16T17:33:36.008Z,11.90
2023-04-16T17:36:03.354Z,11.80
2023-04-16T17:38:30.696Z,11.80
2023-04-16T17:40:58.253Z,11.80
2023-04-16T17:43:25.569Z,11.60
2023-04-16T17:45:52.866Z,11.60
2023-04-16T17:48:20.457Z,11.70
2023-04-16T17:50:48.679Z,11.70
2023-04-16T17:53:15.967Z,11.60
2023-04-16T17:55:56.874Z,11.50
2023-04-16T17:58:26.690Z,11.30
2023-04-16T18:00:53.933Z,11.30
2023-04-16T18:03:22.250Z,11.40
2023-04-16T18:05:49.712Z,11.30
2023-04-16T18:08:16.971Z,11.30
2023-04-16T18:10:44.216Z,11.20
2023-04-16T18:13:11.435Z,11.40
2023-04-16T18:15:38.926Z,11.50
2023-04-16T18:18:06.641Z,11.30
2023-04-16T18:20:34.496Z,11.40
2023-04-16T18:23:02.795Z,11.50
2023-04-16T18:25:34.908Z,11.40
2023-04-16T18:28:04.079Z,11.30
2023-04-16T18:30:31.386Z,11.30
2023-04-16T18:35:28.853Z,11.20
2023-04-16T18:37:56.106Z,11.10
2023-04-16T18:40:23.550Z,11.10
2023-04-16T18:42:51.129Z,11.00
2023-04-16T18:45:21.848Z,11.00
2023-04-16T18:47:50.564Z,11.10
2023-04-16T18:50:18.106Z,11.00
2023-04-16T18:52:45.406Z,11.10
2023-04-16T18:55:12.605Z,11.10
2023-04-16T18:57:40.061Z,11.10
2023-04-16T19:00:14.047Z,11.10
2023-04-16T19:02:42.025Z,10.90
2023-04-16T19:05:10.601Z,11.00
2023-04-16T19:07:38.675Z,10.90
2023-04-16T19:10:06.520Z,10.90
2023-04-16T19:12:34.142Z,10.90
2023-04-16T19:15:01.508Z,11.00
2023-04-16T19:17:28.911Z,11.00
2023-04-16T19:19:56.239Z,11.00
2023-04-16T19:22:23.503Z,10.90
2023-04-16T19:24:50.904Z,10.90
2023-04-16T19:27:18.169Z,10.90
2023-04-16T19:29:46.845Z,10.80
2023-04-16T19:32:14.541Z,10.70
2023-04-16T19:34:41.910Z,10.70
2023-04-16T19:37:09.299Z,10.60
2023-04-16T19:39:36.726Z,10.70
2023-04-16T19:42:04.407Z,10.70
2023-04-16T19:44:32.576Z,10.70
2023-04-16T19:46:59.922Z,10.70
2023-04-16T19:49:27.244Z,10.60
2023-04-16T19:51:55.446Z,10.60
2023-04-16T19:54:22.806Z,10.60
2023-04-16T19:56:52.111Z,10.70
2023-04-16T19:59:20.821Z,10.60
2023-04-16T20:01:48.000Z,10.60
2023-04-16T20:04:15.256Z,10.60
2023-04-16T20:06:42.473Z,10.60
2023-04-16T20:09:10.120Z,10.50
2023-04-16T20:11:37.533Z,10.60
2023-04-16T20:14:04.806Z,10.50
2023-04-16T20:16:32.367Z,10.40
2023-04-16T20:19:03.620Z,10.30
2023-04-16T20:21:32.920Z,10.30
2023-04-16T20:24:00.758Z,10.40
2023-04-16T20:26:33.789Z,10.40
2023-04-16T20:29:01.300Z,10.40
2023-04-16T20:31:29.266Z,10.30
2023-04-16T20:33:56.634Z,10.30
2023-04-16T20:36:24.237Z,10.20
2023-04-16T20:38:53.811Z,10.20
2023-04-16T20:41:21.648Z,10.20
2023-04-16T20:43:53.109Z,10.30
2023-04-16T20:46:24.558Z,10.30
2023-04-16T20:48:52.171Z,10.20
2023-04-16T20:51:19.527Z,10.20
2023-04-16T20:53:46.828Z,10.10
2023-04-16T20:56:15.160Z,10.10
2023-04-16T20:58:42.908Z,10.10
2023-04-16T21:01:10.380Z,10.00
2023-04-16T21:03:37.894Z,10.00
2023-04-16T21:06:05.586Z,9.90
2023-04-16T21:08:32.952Z,9.80
2023-04-16T21:11:00.268Z,9.90
2023-04-16T21:13:27.511Z,10.00
2023-04-16T21:15:55.003Z,9.80
2023-04-16T21:18:22.325Z,9.90
2023-04-16T21:20:49.719Z,9.80
2023-04-16T21:23:17.042Z,9.80
2023-04-16T21:25:44.417Z,9.70
2023-04-16T21:28:11.711Z,9.70
2023-04-16T21:30:39.123Z,9.60
2023-04-16T21:33:07.032Z,9.70
2023-04-16T21:35:34.633Z,9.60
2023-04-16T21:38:01.982Z,9.70
2023-04-16T21:40:29.354Z,9.80
2023-04-16T21:42:56.823Z,9.80
2023-04-16T21:45:24.287Z,9.90
2023-04-16T21:47:52.015Z,9.90
2023-04-16T21:50:19.513Z,9.90
2023-04-16T21:52:47.064Z,9.90
2023-04-16T21:55:14.902Z,9.90
2023-04-16T21:57:42.290Z,9.90
2023-04-16T22:00:13.985Z,9.90
2023-04-16T22:02:44.695Z,9.90
2023-04-16T22:05:12.293Z,9.90
2023-04-16T22:07:39.738Z,9.90
2023-04-16T22:10:08.972Z,9.90
2023-04-16T22:12:40.110Z,9.90
2023-04-16T22:15:08.399Z,9.90
2023-04-16T22:17:36.091Z,9.80
2023-04-16T22:20:13.300Z,9.80
2023-04-16T22:22:42.032Z,9.80
2023-04-16T22:25:10.098Z,9.70
2023-04-16T22:27:37.781Z,9.50
2023-04-16T22:30:07.400Z,9.30
2023-04-16T22:32:34.759Z,9.40
2023-04-16T22:35:02.140Z,9.40
2023-04-16T22:37:29.445Z,9.30
2023-04-16T22:39:56.794Z,9.50
2023-04-16T22:42:24.376Z,9.50
2023-04-16T22:44:52.097Z,9.50
2023-04-16T22:47:19.370Z,9.50
2023-04-16T22:49:47.559Z,9.30
2023-04-16T22:52:14.925Z,9.40
2023-04-16T22:54:42.324Z,9.20
2023-04-16T22:57:09.727Z,9.20
2023-04-16T22:59:37.106Z,9.20
2023-04-16T23:02:04.439Z,9.20
2023-04-16T23:04:33.170Z,9.20
2023-04-16T23:07:00.573Z,9.20
2023-04-16T23:09:27.836Z,9.10
2023-04-16T23:11:55.976Z,9.10
2023-04-16T23:14:23.980Z,9.00
2023-04-16T23:16:51.496Z,8.90
2023-04-16T23:19:19.005Z,8.80
2023-04-16T23:21:46.436Z,8.80
2023-04-16T23:24:13.905Z,8.70
2023-04-16T23:26:41.155Z,8.70
2023-04-16T23:29:08.678Z,8.70
2023-04-16T23:31:36.389Z,8.70
2023-04-16T23:34:03.861Z,8.60
2023-04-16T23:36:31.285Z,8.70
2023-04-16T23:38:58.509Z,8.70
2023-04-16T23:41:25.786Z,8.60
2023-04-16T23:43:53.070Z,8.70
2023-04-16T23:46:20.609Z,8.70
2023-04-16T23:48:48.074Z,8.70
2023-04-16T23:51:15.716Z,8.70
2023-04-16T23:53:43.107Z,8.60
2023-04-16T23:56:11.494Z,8.60
2023-04-16T23:58:38.903Z,8.60
